»·PEaware :: N1399 KLAX-L52

N1399 :: KLAX-L52

FLIGHT INFORMATION

Flight Status: Arrived
Operator: Privately registered:
United States
More flights under this callsign
Pilot: David C. (16084)
Aircraft: SOCATA TBM-900
(TBM9)
More flights by this aircraft type
Origin: KLAX Los Angeles Intl
United States
Destination: L52 Oceano Co
United States
More flights between these airports :: More routes between these airports
Route: +VTU8 VTU T257 MQO
File this flight plan on PilotEdge
Remarks:
Altitude:
(Current/Filed)
22,000ft
Speed:
(Current/Filed)
310kts
Departed: 09-Sep-19 11:45 AM
Arrived: 09-Sep-19 12:27 PM
Distance/Time
Traveled:
130nm/0:42
Distance/Time
To Go:
Arrived

Flight Plot

Page will automatically refresh every two minutes.

Flight plan parsing failed; only flown route is shown


Map Options




Map Legend


Flown Route
Filed Route
Departure Airport
Arrival Airport
Navaid (VOR, NDB)
Fix

Horizontal Profiles

Position Reports

Time Latitude Longitude Heading Altitude Ground
Speed
09-Sep-19 11:25 33.932899 -118.398598 262 108ft 0kts
09-Sep-19 11:26 33.932899 -118.398598 262 108ft 0kts
09-Sep-19 11:27 33.932899 -118.398598 262 108ft 0kts
09-Sep-19 11:28 33.932899 -118.398598 262 108ft 0kts
09-Sep-19 11:29 33.932899 -118.398598 262 108ft 0kts
09-Sep-19 11:30 33.932899 -118.398598 262 108ft 0kts
09-Sep-19 11:31 33.932899 -118.398598 262 108ft 0kts
09-Sep-19 11:32 33.932899 -118.398598 262 108ft 0kts
09-Sep-19 11:33 33.932899 -118.398598 262 108ft 0kts
09-Sep-19 11:34 33.932899 -118.398598 262 108ft 0kts
09-Sep-19 11:35 33.932899 -118.398598 262 108ft 0kts
09-Sep-19 11:36 33.932899 -118.398598 262 108ft 0kts
09-Sep-19 11:37 33.932899 -118.398598 262 108ft 0kts
09-Sep-19 11:38 33.933415 -118.398862 47 108ft 6kts
09-Sep-19 11:39 33.934693 -118.396814 84 108ft 11kts
09-Sep-19 11:40 33.935122 -118.392470 81 108ft 19kts
09-Sep-19 11:42 33.935795 -118.386102 83 108ft 14kts
09-Sep-19 11:43 33.936442 -118.382795 7 108ft 0kts
09-Sep-19 11:44 33.936442 -118.382795 7 108ft 0kts
09-Sep-19 11:45 33.936897 -118.386956 263 108ft 83kts
09-Sep-19 11:46 33.932989 -118.433458 263 1871ft 163kts
09-Sep-19 11:47 33.928428 -118.489788 263 3922ft 173kts
09-Sep-19 11:48 33.923256 -118.548221 263 5946ft 179kts
09-Sep-19 11:49 33.917113 -118.609872 263 7970ft 189kts
09-Sep-19 11:50 33.910227 -118.672159 262 10042ft 188kts
09-Sep-19 11:51 33.902785 -118.732647 262 12503ft 178kts
09-Sep-19 11:52 33.894372 -118.798454 262 13896ft 202kts
09-Sep-19 11:53 33.886180 -118.860154 262 16279ft 181kts
09-Sep-19 11:54 33.895451 -118.915465 291 18743ft 174kts
09-Sep-19 11:55 33.914842 -118.968726 291 21103ft 176kts
09-Sep-19 11:56 33.937342 -119.028838 292 21998ft 232kts
09-Sep-19 11:57 33.965956 -119.106293 292 21972ft 266kts
09-Sep-19 11:58 33.996525 -119.189468 292 21966ft 274kts
09-Sep-19 11:59 34.035395 -119.267365 317 21988ft 280kts
09-Sep-19 12:00 34.094889 -119.328835 315 21963ft 281kts
09-Sep-19 12:01 34.153742 -119.391179 315 21959ft 282kts
09-Sep-19 12:01 34.203026 -119.443525 315 21951ft 282kts
09-Sep-19 12:03 34.271804 -119.516716 315 21937ft 282kts
09-Sep-19 12:04 34.330685 -119.579509 315 21935ft 282kts
09-Sep-19 12:04 34.379774 -119.631952 315 21935ft 282kts
09-Sep-19 12:05 34.438701 -119.695020 314 21941ft 282kts
09-Sep-19 12:07 34.507059 -119.768342 314 21523ft 272kts
09-Sep-19 12:07 34.548653 -119.822388 309 20527ft 262kts
09-Sep-19 12:08 34.599058 -119.888687 309 19355ft 270kts
09-Sep-19 12:09 34.649634 -119.955331 310 18164ft 266kts
09-Sep-19 12:10 34.700094 -120.021959 310 16984ft 269kts
09-Sep-19 12:11 34.750972 -120.089264 310 15791ft 270kts
09-Sep-19 12:12 34.802065 -120.156987 311 14592ft 272kts
09-Sep-19 12:13 34.853263 -120.224973 311 13391ft 273kts
09-Sep-19 12:14 34.904736 -120.293465 311 12182ft 274kts
09-Sep-19 12:15 34.956159 -120.362027 311 10966ft 272kts
09-Sep-19 12:16 35.006489 -120.429274 311 9768ft 264kts
09-Sep-19 12:17 35.055520 -120.494921 310 8604ft 259kts
09-Sep-19 12:18 35.103956 -120.559889 310 7459ft 258kts
09-Sep-19 12:19 35.142983 -120.628702 295 6164ft 233kts
09-Sep-19 12:20 35.129987 -120.683545 190 4388ft 196kts
09-Sep-19 12:21 35.091183 -120.646606 116 2301ft 193kts
09-Sep-19 12:22 35.065008 -120.595223 134 1761ft 172kts
09-Sep-19 12:23 35.076025 -120.569990 292 1421ft 123kts
09-Sep-19 12:24 35.088919 -120.598880 302 681ft 76kts
09-Sep-19 12:25 35.099960 -120.619423 302 24ft 61kts
09-Sep-19 12:26 35.103136 -120.623915 310 17ft 6kts
09-Sep-19 12:27 35.103366 -120.624525 206 17ft 0kts
09-Sep-19 12:28 35.103366 -120.624525 206 17ft 0kts
09-Sep-19 12:29 35.103366 -120.624525 206 17ft 0kts
09-Sep-19 12:30 35.103366 -120.624524 206 17ft 0kts
09-Sep-19 12:31 35.103366 -120.624524 206 17ft 0kts
09-Sep-19 12:32 35.103366 -120.624524 206 17ft 0kts
09-Sep-19 12:33 35.103366 -120.624524 206 17ft 0kts
09-Sep-19 12:34 35.103366 -120.624524 206 17ft 0kts
09-Sep-19 12:35 35.103366 -120.624524 206 17ft 0kts
09-Sep-19 12:36 35.103366 -120.624524 206 17ft 0kts
09-Sep-19 12:37 35.103366 -120.624524 206 17ft 0kts
09-Sep-19 12:38 35.103366 -120.624524 206 17ft 0kts
09-Sep-19 12:39 35.103366 -120.624524 206 17ft 0kts
09-Sep-19 12:40 35.103366 -120.624524 206 17ft 0kts

Navigation Log

Ident Type
Flight plan parsing failed, navigation log unavailable